sensor_id;sensor_type;location;lat;lon;timestamp;temperature;humidity
21019;DHT22;10667;51.056;3.732;2023-05-20T00:00:49;15.30;99.90
21019;DHT22;10667;51.056;3.732;2023-05-20T00:03:16;15.30;99.90
21019;DHT22;10667;51.056;3.732;2023-05-20T00:05:41;15.20;99.90
21019;DHT22;10667;51.056;3.732;2023-05-20T00:08:07;15.10;99.90
21019;DHT22;10667;51.056;3.732;2023-05-20T00:10:37;15.20;99.90
21019;DHT22;10667;51.056;3.732;2023-05-20T00:13:03;15.10;99.90
21019;DHT22;10667;51.056;3.732;2023-05-20T00:15:29;15.20;99.90
21019;DHT22;10667;51.056;3.732;2023-05-20T00:17:56;15.10;99.90
21019;DHT22;10667;51.056;3.732;2023-05-20T00:20:22;15.10;99.90
21019;DHT22;10667;51.056;3.732;2023-05-20T00:22:47;15.00;99.90
21019;DHT22;10667;51.056;3.732;2023-05-20T00:25:13;15.00;99.90
21019;DHT22;10667;51.056;3.732;2023-05-20T00:27:40;15.00;99.90
21019;DHT22;10667;51.056;3.732;2023-05-20T00:30:06;15.00;99.90
21019;DHT22;10667;51.056;3.732;2023-05-20T00:32:32;15.00;99.90
21019;DHT22;10667;51.056;3.732;2023-05-20T00:34:59;15.10;99.90
21019;DHT22;10667;51.056;3.732;2023-05-20T00:37:26;15.00;99.90
21019;DHT22;10667;51.056;3.732;2023-05-20T00:39:52;15.10;99.90
21019;DHT22;10667;51.056;3.732;2023-05-20T00:42:21;14.80;99.90
21019;DHT22;10667;51.056;3.732;2023-05-20T00:44:48;14.80;99.90
21019;DHT22;10667;51.056;3.732;2023-05-20T00:47:25;14.80;99.90
21019;DHT22;10667;51.056;3.732;2023-05-20T00:49:51;14.90;99.90
21019;DHT22;10667;51.056;3.732;2023-05-20T00:52:18;14.90;99.90
21019;DHT22;10667;51.056;3.732;2023-05-20T00:54:44;14.80;99.90
21019;DHT22;10667;51.056;3.732;2023-05-20T00:57:11;14.90;99.90
21019;DHT22;10667;51.056;3.732;2023-05-20T00:59:37;14.80;99.90
21019;DHT22;10667;51.056;3.732;2023-05-20T01:02:03;14.80;99.90
21019;DHT22;10667;51.056;3.732;2023-05-20T01:04:30;14.70;99.90
21019;DHT22;10667;51.056;3.732;2023-05-20T01:06:57;14.70;99.90
21019;DHT22;10667;51.056;3.732;2023-05-20T01:09:24;14.70;99.90
21019;DHT22;10667;51.056;3.732;2023-05-20T01:11:57;14.70;99.90
21019;DHT22;10667;51.056;3.732;2023-05-20T01:14:26;14.70;99.90
21019;DHT22;10667;51.056;3.732;2023-05-20T01:16:54;14.70;99.90
21019;DHT22;10667;51.056;3.732;2023-05-20T01:19:39;14.70;99.90
21019;DHT22;10667;51.056;3.732;2023-05-20T01:22:06;14.70;99.90
21019;DHT22;10667;51.056;3.732;2023-05-20T01:24:32;14.70;99.90
21019;DHT22;10667;51.056;3.732;2023-05-20T01:26:58;14.60;99.90
21019;DHT22;10667;51.056;3.732;2023-05-20T01:29:24;14.70;99.90
21019;DHT22;10667;51.056;3.732;2023-05-20T01:31:52;14.60;99.90
21019;DHT22;10667;51.056;3.732;2023-05-20T01:34:19;14.70;99.90
21019;DHT22;10667;51.056;3.732;2023-05-20T01:36:45;14.60;99.90
21019;DHT22;10667;51.056;3.732;2023-05-20T01:39:12;14.50;99.90
21019;DHT22;10667;51.056;3.732;2023-05-20T01:41:38;14.50;99.90
21019;DHT22;10667;51.056;3.732;2023-05-20T01:44:05;14.50;99.90
21019;DHT22;10667;51.056;3.732;2023-05-20T01:46:34;14.50;99.90
21019;DHT22;10667;51.056;3.732;2023-05-20T01:49:00;14.50;99.90
21019;DHT22;10667;51.056;3.732;2023-05-20T01:51:25;14.50;99.90
21019;DHT22;10667;51.056;3.732;2023-05-20T01:53:52;14.50;99.90
21019;DHT22;10667;51.056;3.732;2023-05-20T01:56:17;14.50;99.90
21019;DHT22;10667;51.056;3.732;2023-05-20T01:58:43;14.50;99.90
21019;DHT22;10667;51.056;3.732;2023-05-20T02:01:09;14.50;99.90
21019;DHT22;10667;51.056;3.732;2023-05-20T02:03:34;14.50;99.90
21019;DHT22;10667;51.056;3.732;2023-05-20T02:06:00;14.40;99.90
21019;DHT22;10667;51.056;3.732;2023-05-20T02:08:26;14.30;99.90
21019;DHT22;10667;51.056;3.732;2023-05-20T02:10:51;14.30;99.90
21019;DHT22;10667;51.056;3.732;2023-05-20T02:13:17;14.30;99.90
21019;DHT22;10667;51.056;3.732;2023-05-20T02:15:42;14.30;99.90
21019;DHT22;10667;51.056;3.732;2023-05-20T02:18:09;14.40;99.90
21019;DHT22;10667;51.056;3.732;2023-05-20T02:20:36;14.40;99.90
21019;DHT22;10667;51.056;3.732;2023-05-20T02:23:02;14.50;99.90
21019;DHT22;10667;51.056;3.732;2023-05-20T02:25:31;14.30;99.90
21019;DHT22;10667;51.056;3.732;2023-05-20T02:27:57;14.30;99.90
21019;DHT22;10667;51.056;3.732;2023-05-20T02:30:22;14.30;99.90
21019;DHT22;10667;51.056;3.732;2023-05-20T02:32:48;14.30;99.90
21019;DHT22;10667;51.056;3.732;2023-05-20T02:35:14;14.30;99.90
21019;DHT22;10667;51.056;3.732;2023-05-20T02:37:40;14.20;99.90
21019;DHT22;10667;51.056;3.732;2023-05-20T02:40:09;14.20;99.90
21019;DHT22;10667;51.056;3.732;2023-05-20T02:42:34;14.20;99.90
21019;DHT22;10667;51.056;3.732;2023-05-20T02:45:00;14.30;99.90
21019;DHT22;10667;51.056;3.732;2023-05-20T02:47:26;14.20;99.90
21019;DHT22;10667;51.056;3.732;2023-05-20T02:49:52;14.20;99.90
21019;DHT22;10667;51.056;3.732;2023-05-20T02:52:17;14.20;99.90
21019;DHT22;10667;51.056;3.732;2023-05-20T02:54:43;14.10;99.90
21019;DHT22;10667;51.056;3.732;2023-05-20T02:57:08;14.20;99.90
21019;DHT22;10667;51.056;3.732;2023-05-20T02:59:34;14.20;99.90
21019;DHT22;10667;51.056;3.732;2023-05-20T03:02:00;14.10;99.90
21019;DHT22;10667;51.056;3.732;2023-05-20T03:04:25;14.10;99.90
21019;DHT22;10667;51.056;3.732;2023-05-20T03:06:51;14.10;99.90
21019;DHT22;10667;51.056;3.732;2023-05-20T03:09:18;14.10;99.90
21019;DHT22;10667;51.056;3.732;2023-05-20T03:11:44;14.00;99.90
21019;DHT22;10667;51.056;3.732;2023-05-20T03:14:11;14.10;99.90
21019;DHT22;10667;51.056;3.732;2023-05-20T03:16:38;14.10;99.90
21019;DHT22;10667;51.056;3.732;2023-05-20T03:19:04;14.00;99.90
21019;DHT22;10667;51.056;3.732;2023-05-20T03:21:30;14.10;99.90
21019;DHT22;10667;51.056;3.732;2023-05-20T03:23:56;13.90;99.90
21019;DHT22;10667;51.056;3.732;2023-05-20T03:26:22;13.90;99.90
21019;DHT22;10667;51.056;3.732;2023-05-20T03:28:47;13.90;99.90
21019;DHT22;10667;51.056;3.732;2023-05-20T03:31:13;14.00;99.90
21019;DHT22;10667;51.056;3.732;2023-05-20T03:33:39;14.00;99.90
21019;DHT22;10667;51.056;3.732;2023-05-20T03:36:05;13.90;99.90
21019;DHT22;10667;51.056;3.732;2023-05-20T03:38:30;13.90;99.90
21019;DHT22;10667;51.056;3.732;2023-05-20T03:40:56;13.80;99.90
21019;DHT22;10667;51.056;3.732;2023-05-20T03:43:22;13.80;99.90
21019;DHT22;10667;51.056;3.732;2023-05-20T03:45:47;13.90;99.90
21019;DHT22;10667;51.056;3.732;2023-05-20T03:48:13;13.90;99.90
21019;DHT22;10667;51.056;3.732;2023-05-20T03:50:39;13.90;99.90
21019;DHT22;10667;51.056;3.732;2023-05-20T03:53:04;13.90;99.90
21019;DHT22;10667;51.056;3.732;2023-05-20T03:55:30;13.90;99.90
21019;DHT22;10667;51.056;3.732;2023-05-20T03:57:56;13.90;99.90
21019;DHT22;10667;51.056;3.732;2023-05-20T04:00:22;13.80;99.90
21019;DHT22;10667;51.056;3.732;2023-05-20T04:02:48;13.70;99.90
21019;DHT22;10667;51.056;3.732;2023-05-20T04:05:14;13.70;99.90
21019;DHT22;10667;51.056;3.732;2023-05-20T04:07:39;13.60;99.90
21019;DHT22;10667;51.056;3.732;2023-05-20T04:10:06;13.60;99.90
21019;DHT22;10667;51.056;3.732;2023-05-20T04:12:32;13.60;99.90
21019;DHT22;10667;51.056;3.732;2023-05-20T04:14:58;13.60;99.90
21019;DHT22;10667;51.056;3.732;2023-05-20T04:17:28;13.60;99.90
21019;DHT22;10667;51.056;3.732;2023-05-20T04:19:57;13.60;99.90
21019;DHT22;10667;51.056;3.732;2023-05-20T04:22:24;13.60;99.90
21019;DHT22;10667;51.056;3.732;2023-05-20T04:24:50;13.50;99.90
21019;DHT22;10667;51.056;3.732;2023-05-20T04:27:16;13.50;99.90
21019;DHT22;10667;51.056;3.732;2023-05-20T04:29:42;13.50;99.90
21019;DHT22;10667;51.056;3.732;2023-05-20T04:32:16;13.50;99.90
21019;DHT22;10667;51.056;3.732;2023-05-20T04:34:43;13.50;99.90
21019;DHT22;10667;51.056;3.732;2023-05-20T04:37:12;13.60;99.90
21019;DHT22;10667;51.056;3.732;2023-05-20T04:39:38;13.60;99.90
21019;DHT22;10667;51.056;3.732;2023-05-20T04:42:04;13.60;99.90
21019;DHT22;10667;51.056;3.732;2023-05-20T04:44:30;13.70;99.90
21019;DHT22;10667;51.056;3.732;2023-05-20T04:46:56;13.70;99.90
21019;DHT22;10667;51.056;3.732;2023-05-20T04:49:23;13.70;99.90
21019;DHT22;10667;51.056;3.732;2023-05-20T04:51:50;13.80;99.90
21019;DHT22;10667;51.056;3.732;2023-05-20T04:54:16;13.80;99.90
21019;DHT22;10667;51.056;3.732;2023-05-20T04:56:43;13.80;99.90
21019;DHT22;10667;51.056;3.732;2023-05-20T04:59:09;13.70;99.90
21019;DHT22;10667;51.056;3.732;2023-05-20T05:01:35;13.70;99.90
21019;DHT22;10667;51.056;3.732;2023-05-20T05:04:01;13.70;99.90
21019;DHT22;10667;51.056;3.732;2023-05-20T05:06:28;13.80;99.90
21019;DHT22;10667;51.056;3.732;2023-05-20T05:08:53;13.80;99.90
21019;DHT22;10667;51.056;3.732;2023-05-20T05:11:19;13.70;99.90
21019;DHT22;10667;51.056;3.732;2023-05-20T05:13:45;13.80;99.90
21019;DHT22;10667;51.056;3.732;2023-05-20T05:16:11;13.80;99.90
21019;DHT22;10667;51.056;3.732;2023-05-20T05:18:37;13.80;99.90
21019;DHT22;10667;51.056;3.732;2023-05-20T05:21:04;13.80;99.90
21019;DHT22;10667;51.056;3.732;2023-05-20T05:23:30;13.80;99.90
21019;DHT22;10667;51.056;3.732;2023-05-20T05:25:56;13.80;99.90
21019;DHT22;10667;51.056;3.732;2023-05-20T05:28:22;13.90;99.90
21019;DHT22;10667;51.056;3.732;2023-05-20T05:30:48;13.90;99.90
21019;DHT22;10667;51.056;3.732;2023-05-20T05:33:14;13.90;99.90
21019;DHT22;10667;51.056;3.732;2023-05-20T05:35:41;13.80;99.90
21019;DHT22;10667;51.056;3.732;2023-05-20T05:38:07;13.80;99.90
21019;DHT22;10667;51.056;3.732;2023-05-20T05:40:32;13.80;99.90
21019;DHT22;10667;51.056;3.732;2023-05-20T05:42:58;13.80;99.90
21019;DHT22;10667;51.056;3.732;2023-05-20T05:45:24;13.90;99.90
21019;DHT22;10667;51.056;3.732;2023-05-20T05:47:50;13.90;99.90
21019;DHT22;10667;51.056;3.732;2023-05-20T05:50:15;13.90;99.90
21019;DHT22;10667;51.056;3.732;2023-05-20T05:52:41;14.00;99.90
21019;DHT22;10667;51.056;3.732;2023-05-20T05:55:08;14.10;99.90
21019;DHT22;10667;51.056;3.732;2023-05-20T05:57:34;14.10;99.90
21019;DHT22;10667;51.056;3.732;2023-05-20T05:59:59;14.10;99.90
21019;DHT22;10667;51.056;3.732;2023-05-20T06:02:25;14.10;99.90
21019;DHT22;10667;51.056;3.732;2023-05-20T06:04:51;14.10;99.90
21019;DHT22;10667;51.056;3.732;2023-05-20T06:07:17;14.20;99.90
21019;DHT22;10667;51.056;3.732;2023-05-20T06:09:43;14.30;99.90
21019;DHT22;10667;51.056;3.732;2023-05-20T06:12:09;14.40;99.90
21019;DHT22;10667;51.056;3.732;2023-05-20T06:14:34;14.50;99.90
21019;DHT22;10667;51.056;3.732;2023-05-20T06:17:01;14.50;99.90
21019;DHT22;10667;51.056;3.732;2023-05-20T06:19:27;14.60;99.90
21019;DHT22;10667;51.056;3.732;2023-05-20T06:21:52;14.70;99.90
21019;DHT22;10667;51.056;3.732;2023-05-20T06:24:18;14.70;99.90
21019;DHT22;10667;51.056;3.732;2023-05-20T06:26:44;14.80;99.90
21019;DHT22;10667;51.056;3.732;2023-05-20T06:29:10;14.80;99.90
21019;DHT22;10667;51.056;3.732;2023-05-20T06:31:36;14.90;99.90
21019;DHT22;10667;51.056;3.732;2023-05-20T06:34:02;14.90;99.90
21019;DHT22;10667;51.056;3.732;2023-05-20T06:36:27;14.90;99.90
21019;DHT22;10667;51.056;3.732;2023-05-20T06:38:53;14.90;99.90
21019;DHT22;10667;51.056;3.732;2023-05-20T06:41:19;14.90;99.90
21019;DHT22;10667;51.056;3.732;2023-05-20T06:43:47;14.90;99.90
21019;DHT22;10667;51.056;3.732;2023-05-20T06:46:12;15.00;99.90
21019;DHT22;10667;51.056;3.732;2023-05-20T06:48:38;15.00;99.90
21019;DHT22;10667;51.056;3.732;2023-05-20T06:51:06;15.10;99.90
21019;DHT22;10667;51.056;3.732;2023-05-20T06:53:34;15.20;99.90
21019;DHT22;10667;51.056;3.732;2023-05-20T06:55:59;15.20;99.90
21019;DHT22;10667;51.056;3.732;2023-05-20T06:58:27;15.40;99.90
21019;DHT22;10667;51.056;3.732;2023-05-20T07:00:52;15.40;99.90
21019;DHT22;10667;51.056;3.732;2023-05-20T07:03:18;15.50;99.90
21019;DHT22;10667;51.056;3.732;2023-05-20T07:05:44;15.50;99.90
21019;DHT22;10667;51.056;3.732;2023-05-20T07:08:09;15.60;99.90
21019;DHT22;10667;51.056;3.732;2023-05-20T07:10:35;15.60;99.90
21019;DHT22;10667;51.056;3.732;2023-05-20T07:13:01;15.70;99.90
21019;DHT22;10667;51.056;3.732;2023-05-20T07:15:27;15.80;99.90
21019;DHT22;10667;51.056;3.732;2023-05-20T07:17:52;16.00;99.90
21019;DHT22;10667;51.056;3.732;2023-05-20T07:20:18;16.00;99.90
21019;DHT22;10667;51.056;3.732;2023-05-20T07:22:44;16.10;99.90
21019;DHT22;10667;51.056;3.732;2023-05-20T07:25:10;16.10;99.90
21019;DHT22;10667;51.056;3.732;2023-05-20T07:27:35;16.20;99.90
21019;DHT22;10667;51.056;3.732;2023-05-20T07:30:02;16.30;99.90
21019;DHT22;10667;51.056;3.732;2023-05-20T07:32:27;16.40;99.90
21019;DHT22;10667;51.056;3.732;2023-05-20T07:34:53;16.50;99.90
21019;DHT22;10667;51.056;3.732;2023-05-20T07:37:19;16.50;99.90
21019;DHT22;10667;51.056;3.732;2023-05-20T07:39:44;16.60;99.90
21019;DHT22;10667;51.056;3.732;2023-05-20T07:42:10;16.80;99.90
21019;DHT22;10667;51.056;3.732;2023-05-20T07:44:36;16.90;99.90
21019;DHT22;10667;51.056;3.732;2023-05-20T07:47:02;17.00;99.90
21019;DHT22;10667;51.056;3.732;2023-05-20T07:49:27;17.00;99.90
21019;DHT22;10667;51.056;3.732;2023-05-20T07:51:53;16.90;99.90
21019;DHT22;10667;51.056;3.732;2023-05-20T07:54:18;17.10;99.90
21019;DHT22;10667;51.056;3.732;2023-05-20T07:56:44;17.10;99.90
21019;DHT22;10667;51.056;3.732;2023-05-20T07:59:10;17.10;99.90
21019;DHT22;10667;51.056;3.732;2023-05-20T08:01:36;17.20;99.90
21019;DHT22;10667;51.056;3.732;2023-05-20T08:04:02;17.30;99.90
21019;DHT22;10667;51.056;3.732;2023-05-20T08:06:28;17.40;99.90
21019;DHT22;10667;51.056;3.732;2023-05-20T08:08:53;17.50;99.90
21019;DHT22;10667;51.056;3.732;2023-05-20T08:11:19;17.70;99.90
21019;DHT22;10667;51.056;3.732;2023-05-20T08:13:48;17.70;99.90
21019;DHT22;10667;51.056;3.732;2023-05-20T08:16:14;17.70;99.90
21019;DHT22;10667;51.056;3.732;2023-05-20T08:18:40;17.90;99.90
21019;DHT22;10667;51.056;3.732;2023-05-20T08:21:06;18.00;99.90
21019;DHT22;10667;51.056;3.732;2023-05-20T08:23:35;18.10;99.90
21019;DHT22;10667;51.056;3.732;2023-05-20T08:26:01;18.20;99.90
21019;DHT22;10667;51.056;3.732;2023-05-20T08:28:28;18.20;99.90
21019;DHT22;10667;51.056;3.732;2023-05-20T08:30:54;18.30;99.90
21019;DHT22;10667;51.056;3.732;2023-05-20T08:33:20;18.50;99.90
21019;DHT22;10667;51.056;3.732;2023-05-20T08:35:47;18.50;99.90
21019;DHT22;10667;51.056;3.732;2023-05-20T08:38:12;18.50;99.90
21019;DHT22;10667;51.056;3.732;2023-05-20T08:40:38;18.40;99.90
21019;DHT22;10667;51.056;3.732;2023-05-20T08:43:04;18.60;99.90
21019;DHT22;10667;51.056;3.732;2023-05-20T08:45:33;18.90;99.90
21019;DHT22;10667;51.056;3.732;2023-05-20T08:48:02;19.10;99.90
21019;DHT22;10667;51.056;3.732;2023-05-20T08:50:30;19.20;99.90
21019;DHT22;10667;51.056;3.732;2023-05-20T08:52:56;19.10;99.90
21019;DHT22;10667;51.056;3.732;2023-05-20T08:55:41;19.10;99.90
21019;DHT22;10667;51.056;3.732;2023-05-20T08:58:07;19.20;99.90
21019;DHT22;10667;51.056;3.732;2023-05-20T09:00:33;19.10;99.90
21019;DHT22;10667;51.056;3.732;2023-05-20T09:02:59;19.30;99.90
21019;DHT22;10667;51.056;3.732;2023-05-20T09:05:25;19.50;99.90
21019;DHT22;10667;51.056;3.732;2023-05-20T09:07:51;19.50;99.90
21019;DHT22;10667;51.056;3.732;2023-05-20T09:10:18;19.50;99.90
21019;DHT22;10667;51.056;3.732;2023-05-20T09:12:44;19.80;99.90
21019;DHT22;10667;51.056;3.732;2023-05-20T09:15:10;19.90;99.90
21019;DHT22;10667;51.056;3.732;2023-05-20T09:17:36;20.00;99.90
21019;DHT22;10667;51.056;3.732;2023-05-20T09:20:11;20.20;99.90
21019;DHT22;10667;51.056;3.732;2023-05-20T09:22:38;20.30;99.90
21019;DHT22;10667;51.056;3.732;2023-05-20T09:25:04;20.20;99.90
21019;DHT22;10667;51.056;3.732;2023-05-20T09:27:30;20.10;99.90
21019;DHT22;10667;51.056;3.732;2023-05-20T09:29:57;20.40;99.90
21019;DHT22;10667;51.056;3.732;2023-05-20T09:32:22;20.50;99.90
21019;DHT22;10667;51.056;3.732;2023-05-20T09:34:51;20.70;99.90
21019;DHT22;10667;51.056;3.732;2023-05-20T09:37:17;20.50;99.90
21019;DHT22;10667;51.056;3.732;2023-05-20T09:39:55;20.80;99.90
21019;DHT22;10667;51.056;3.732;2023-05-20T09:42:28;20.90;99.90
21019;DHT22;10667;51.056;3.732;2023-05-20T09:44:57;20.90;99.90
21019;DHT22;10667;51.056;3.732;2023-05-20T09:47:23;20.80;99.90
21019;DHT22;10667;51.056;3.732;2023-05-20T09:49:52;20.90;99.90
21019;DHT22;10667;51.056;3.732;2023-05-20T09:52:18;21.20;99.90
21019;DHT22;10667;51.056;3.732;2023-05-20T09:54:44;21.20;99.90
21019;DHT22;10667;51.056;3.732;2023-05-20T09:57:12;21.40;99.90
21019;DHT22;10667;51.056;3.732;2023-05-20T09:59:40;21.50;99.90
21019;DHT22;10667;51.056;3.732;2023-05-20T10:02:06;21.60;99.90
21019;DHT22;10667;51.056;3.732;2023-05-20T10:04:34;21.60;99.90
21019;DHT22;10667;51.056;3.732;2023-05-20T10:07:10;21.80;99.90
21019;DHT22;10667;51.056;3.732;2023-05-20T10:10:07;22.20;99.90
21019;DHT22;10667;51.056;3.732;2023-05-20T10:19:25;22.60;99.90
21019;DHT22;10667;51.056;3.732;2023-05-20T10:22:01;22.50;99.20
21019;DHT22;10667;51.056;3.732;2023-05-20T10:24:42;22.60;99.30
21019;DHT22;10667;51.056;3.732;2023-05-20T10:27:12;22.60;99.00
21019;DHT22;10667;51.056;3.732;2023-05-20T10:32:30;23.10;97.90
21019;DHT22;10667;51.056;3.732;2023-05-20T10:35:00;23.40;98.60
21019;DHT22;10667;51.056;3.732;2023-05-20T10:37:28;23.30;97.20
21019;DHT22;10667;51.056;3.732;2023-05-20T10:40:05;23.50;97.00
21019;DHT22;10667;51.056;3.732;2023-05-20T10:42:31;23.70;95.30
21019;DHT22;10667;51.056;3.732;2023-05-20T10:44:57;23.60;96.40
21019;DHT22;10667;51.056;3.732;2023-05-20T10:47:23;23.30;95.90
21019;DHT22;10667;51.056;3.732;2023-05-20T10:49:48;23.20;96.10
21019;DHT22;10667;51.056;3.732;2023-05-20T10:52:16;23.30;94.50
21019;DHT22;10667;51.056;3.732;2023-05-20T10:54:53;23.80;93.90
21019;DHT22;10667;51.056;3.732;2023-05-20T10:57:20;24.20;92.20
21019;DHT22;10667;51.056;3.732;2023-05-20T10:59:46;24.70;90.90
21019;DHT22;10667;51.056;3.732;2023-05-20T11:02:14;24.90;88.00
21019;DHT22;10667;51.056;3.732;2023-05-20T11:04:43;24.90;85.00
21019;DHT22;10667;51.056;3.732;2023-05-20T11:07:09;25.10;83.80
21019;DHT22;10667;51.056;3.732;2023-05-20T11:09:35;25.20;80.70
21019;DHT22;10667;51.056;3.732;2023-05-20T11:12:01;25.40;80.50
21019;DHT22;10667;51.056;3.732;2023-05-20T11:14:30;25.60;83.20
21019;DHT22;10667;51.056;3.732;2023-05-20T11:16:57;25.90;79.90
21019;DHT22;10667;51.056;3.732;2023-05-20T11:19:24;25.90;80.10
21019;DHT22;10667;51.056;3.732;2023-05-20T11:21:50;26.00;76.90
21019;DHT22;10667;51.056;3.732;2023-05-20T11:24:25;26.10;75.70
21019;DHT22;10667;51.056;3.732;2023-05-20T11:26:52;26.20;74.20
21019;DHT22;10667;51.056;3.732;2023-05-20T11:29:18;26.00;72.20
21019;DHT22;10667;51.056;3.732;2023-05-20T11:31:44;26.00;74.30
21019;DHT22;10667;51.056;3.732;2023-05-20T11:34:11;26.10;71.70
21019;DHT22;10667;51.056;3.732;2023-05-20T11:36:43;26.40;73.20
21019;DHT22;10667;51.056;3.732;2023-05-20T11:39:10;26.70;68.90
21019;DHT22;10667;51.056;3.732;2023-05-20T11:41:38;27.00;65.90
21019;DHT22;10667;51.056;3.732;2023-05-20T11:44:03;27.70;64.40
21019;DHT22;10667;51.056;3.732;2023-05-20T11:46:30;28.60;61.30
21019;DHT22;10667;51.056;3.732;2023-05-20T11:48:56;29.80;59.80
21019;DHT22;10667;51.056;3.732;2023-05-20T11:51:26;30.30;55.00
21019;DHT22;10667;51.056;3.732;2023-05-20T11:53:51;30.60;53.60
21019;DHT22;10667;51.056;3.732;2023-05-20T11:56:17;30.70;51.30
21019;DHT22;10667;51.056;3.732;2023-05-20T11:58:43;30.80;51.30
21019;DHT22;10667;51.056;3.732;2023-05-20T12:01:10;31.60;50.70
21019;DHT22;10667;51.056;3.732;2023-05-20T12:03:35;32.40;49.20
21019;DHT22;10667;51.056;3.732;2023-05-20T12:06:02;33.10;44.90
21019;DHT22;10667;51.056;3.732;2023-05-20T12:08:28;33.90;44.70
21019;DHT22;10667;51.056;3.732;2023-05-20T12:10:54;34.70;43.60
21019;DHT22;10667;51.056;3.732;2023-05-20T12:13:19;35.40;40.80
21019;DHT22;10667;51.056;3.732;2023-05-20T12:15:45;36.00;39.40
21019;DHT22;10667;51.056;3.732;2023-05-20T12:18:11;36.50;37.80
21019;DHT22;10667;51.056;3.732;2023-05-20T12:20:36;36.80;37.30
21019;DHT22;10667;51.056;3.732;2023-05-20T12:23:02;36.20;36.00
21019;DHT22;10667;51.056;3.732;2023-05-20T12:25:28;36.00;35.60
21019;DHT22;10667;51.056;3.732;2023-05-20T12:27:55;35.00;37.30
21019;DHT22;10667;51.056;3.732;2023-05-20T12:30:22;34.40;38.10
21019;DHT22;10667;51.056;3.732;2023-05-20T12:32:48;35.00;38.10
21019;DHT22;10667;51.056;3.732;2023-05-20T12:35:36;34.70;37.20
21019;DHT22;10667;51.056;3.732;2023-05-20T12:38:02;35.40;38.30
21019;DHT22;10667;51.056;3.732;2023-05-20T12:40:28;35.40;35.40
21019;DHT22;10667;51.056;3.732;2023-05-20T12:42:54;35.00;35.70
21019;DHT22;10667;51.056;3.732;2023-05-20T12:45:19;33.40;37.80
21019;DHT22;10667;51.056;3.732;2023-05-20T12:47:45;32.70;39.10
21019;DHT22;10667;51.056;3.732;2023-05-20T12:50:10;32.80;39.40
21019;DHT22;10667;51.056;3.732;2023-05-20T12:52:36;33.50;39.10
21019;DHT22;10667;51.056;3.732;2023-05-20T12:55:02;34.10;39.50
21019;DHT22;10667;51.056;3.732;2023-05-20T12:57:29;34.10;37.80
21019;DHT22;10667;51.056;3.732;2023-05-20T12:59:55;34.10;37.60
21019;DHT22;10667;51.056;3.732;2023-05-20T13:02:21;34.60;38.40
21019;DHT22;10667;51.056;3.732;2023-05-20T13:04:46;35.60;37.20
21019;DHT22;10667;51.056;3.732;2023-05-20T13:07:12;36.20;35.90
21019;DHT22;10667;51.056;3.732;2023-05-20T13:09:38;36.50;35.30
21019;DHT22;10667;51.056;3.732;2023-05-20T13:12:03;37.30;35.70
21019;DHT22;10667;51.056;3.732;2023-05-20T13:14:29;37.60;33.70
21019;DHT22;10667;51.056;3.732;2023-05-20T13:16:56;37.80;32.80
21019;DHT22;10667;51.056;3.732;2023-05-20T13:19:22;38.20;32.80
21019;DHT22;10667;51.056;3.732;2023-05-20T13:21:50;38.60;32.80
21019;DHT22;10667;51.056;3.732;2023-05-20T13:24:18;38.20;32.50
21019;DHT22;10667;51.056;3.732;2023-05-20T13:26:44;37.30;33.30
21019;DHT22;10667;51.056;3.732;2023-05-20T13:29:11;37.50;33.10
21019;DHT22;10667;51.056;3.732;2023-05-20T13:31:37;37.40;33.00
21019;DHT22;10667;51.056;3.732;2023-05-20T13:34:03;36.70;33.30
21019;DHT22;10667;51.056;3.732;2023-05-20T13:36:28;35.50;34.10
21019;DHT22;10667;51.056;3.732;2023-05-20T13:38:55;33.50;36.60
21019;DHT22;10667;51.056;3.732;2023-05-20T13:41:21;33.50;38.00
21019;DHT22;10667;51.056;3.732;2023-05-20T13:43:47;34.60;36.70
21019;DHT22;10667;51.056;3.732;2023-05-20T13:46:14;36.00;36.20
21019;DHT22;10667;51.056;3.732;2023-05-20T13:48:40;36.40;34.50
21019;DHT22;10667;51.056;3.732;2023-05-20T13:51:05;34.90;34.70
21019;DHT22;10667;51.056;3.732;2023-05-20T13:53:31;34.20;36.40
21019;DHT22;10667;51.056;3.732;2023-05-20T13:55:57;34.80;36.50
21019;DHT22;10667;51.056;3.732;2023-05-20T13:58:23;35.20;35.10
21019;DHT22;10667;51.056;3.732;2023-05-20T14:00:48;36.20;35.20
21019;DHT22;10667;51.056;3.732;2023-05-20T14:03:14;37.20;33.70
21019;DHT22;10667;51.056;3.732;2023-05-20T14:05:40;37.80;32.40
21019;DHT22;10667;51.056;3.732;2023-05-20T14:08:06;38.20;31.40
21019;DHT22;10667;51.056;3.732;2023-05-20T14:10:32;37.90;33.40
21019;DHT22;10667;51.056;3.732;2023-05-20T14:12:58;37.70;31.50
21019;DHT22;10667;51.056;3.732;2023-05-20T14:15:24;38.00;32.50
21019;DHT22;10667;51.056;3.732;2023-05-20T14:17:50;37.60;32.30
21019;DHT22;10667;51.056;3.732;2023-05-20T14:20:16;36.40;33.40
21019;DHT22;10667;51.056;3.732;2023-05-20T14:22:41;35.50;34.70
21019;DHT22;10667;51.056;3.732;2023-05-20T14:25:07;34.80;35.60
21019;DHT22;10667;51.056;3.732;2023-05-20T14:27:33;34.20;35.50
21019;DHT22;10667;51.056;3.732;2023-05-20T14:29:59;32.10;38.60
21019;DHT22;10667;51.056;3.732;2023-05-20T14:32:25;31.20;40.30
21019;DHT22;10667;51.056;3.732;2023-05-20T14:34:51;30.40;41.50
21019;DHT22;10667;51.056;3.732;2023-05-20T14:37:18;30.10;41.70
21019;DHT22;10667;51.056;3.732;2023-05-20T14:39:44;29.80;42.90
21019;DHT22;10667;51.056;3.732;2023-05-20T14:42:10;29.30;43.90
21019;DHT22;10667;51.056;3.732;2023-05-20T14:44:36;29.10;44.30
21019;DHT22;10667;51.056;3.732;2023-05-20T14:47:02;28.80;44.40
21019;DHT22;10667;51.056;3.732;2023-05-20T14:49:28;28.10;46.10
21019;DHT22;10667;51.056;3.732;2023-05-20T14:51:53;27.50;47.30
21019;DHT22;10667;51.056;3.732;2023-05-20T14:54:19;27.10;48.00
21019;DHT22;10667;51.056;3.732;2023-05-20T14:56:52;27.60;48.60
21019;DHT22;10667;51.056;3.732;2023-05-20T14:59:18;28.40;47.70
21019;DHT22;10667;51.056;3.732;2023-05-20T15:01:44;28.10;46.50
21019;DHT22;10667;51.056;3.732;2023-05-20T15:04:09;28.10;47.60
21019;DHT22;10667;51.056;3.732;2023-05-20T15:06:35;29.60;47.30
21019;DHT22;10667;51.056;3.732;2023-05-20T15:09:02;30.70;43.20
21019;DHT22;10667;51.056;3.732;2023-05-20T15:11:27;30.60;42.90
21019;DHT22;10667;51.056;3.732;2023-05-20T15:13:53;30.30;43.70
21019;DHT22;10667;51.056;3.732;2023-05-20T15:16:19;29.90;43.80
21019;DHT22;10667;51.056;3.732;2023-05-20T15:18:51;29.20;45.50
21019;DHT22;10667;51.056;3.732;2023-05-20T15:21:16;28.70;46.10
21019;DHT22;10667;51.056;3.732;2023-05-20T15:23:42;28.10;47.10
21019;DHT22;10667;51.056;3.732;2023-05-20T15:26:08;27.40;48.70
21019;DHT22;10667;51.056;3.732;2023-05-20T15:28:37;27.00;50.10
21019;DHT22;10667;51.056;3.732;2023-05-20T15:31:02;26.50;50.50
21019;DHT22;10667;51.056;3.732;2023-05-20T15:33:28;26.60;49.90
21019;DHT22;10667;51.056;3.732;2023-05-20T15:35:53;26.60;49.80